sensor_id;sensor_type;location;lat;lon;timestamp;P1;durP1;ratioP1;P2;durP2;ratioP2
48859;SDS011;34679;51.436;-2.518;2023-07-20T00:00:52;3.63;;;2.42;;
48859;SDS011;34679;51.436;-2.518;2023-07-20T00:03:18;4.25;;;2.63;;
48859;SDS011;34679;51.436;-2.518;2023-07-20T00:05:50;7.78;;;2.50;;
48859;SDS011;34679;51.436;-2.518;2023-07-20T00:08:17;6.75;;;2.90;;
48859;SDS011;34679;51.436;-2.518;2023-07-20T00:10:43;5.70;;;3.17;;
48859;SDS011;34679;51.436;-2.518;2023-07-20T00:13:09;9.70;;;4.35;;
48859;SDS011;34679;51.436;-2.518;2023-07-20T00:15:36;5.35;;;3.70;;
48859;SDS011;34679;51.436;-2.518;2023-07-20T00:18:03;6.43;;;3.67;;
48859;SDS011;34679;51.436;-2.518;2023-07-20T00:20:31;8.13;;;4.68;;
48859;SDS011;34679;51.436;-2.518;2023-07-20T00:22:57;10.10;;;4.80;;
48859;SDS011;34679;51.436;-2.518;2023-07-20T00:25:23;7.38;;;4.70;;
48859;SDS011;34679;51.436;-2.518;2023-07-20T00:27:50;6.90;;;3.85;;
48859;SDS011;34679;51.436;-2.518;2023-07-20T00:30:15;10.40;;;4.80;;
48859;SDS011;34679;51.436;-2.518;2023-07-20T00:32:42;5.80;;;4.85;;
48859;SDS011;34679;51.436;-2.518;2023-07-20T00:35:08;9.13;;;4.57;;
48859;SDS011;34679;51.436;-2.518;2023-07-20T00:37:34;7.28;;;4.25;;
48859;SDS011;34679;51.436;-2.518;2023-07-20T00:40:00;8.48;;;4.15;;
48859;SDS011;34679;51.436;-2.518;2023-07-20T00:42:26;6.95;;;3.88;;
48859;SDS011;34679;51.436;-2.518;2023-07-20T00:44:51;8.05;;;4.28;;
48859;SDS011;34679;51.436;-2.518;2023-07-20T00:47:17;4.88;;;4.10;;
48859;SDS011;34679;51.436;-2.518;2023-07-20T00:49:43;4.93;;;4.38;;
48859;SDS011;34679;51.436;-2.518;2023-07-20T00:52:09;5.90;;;3.83;;
48859;SDS011;34679;51.436;-2.518;2023-07-20T00:54:39;11.02;;;3.95;;
48859;SDS011;34679;51.436;-2.518;2023-07-20T00:57:06;6.45;;;3.38;;
48859;SDS011;34679;51.436;-2.518;2023-07-20T00:59:36;10.23;;;3.60;;
48859;SDS011;34679;51.436;-2.518;2023-07-20T01:02:02;7.13;;;3.22;;
48859;SDS011;34679;51.436;-2.518;2023-07-20T01:04:28;3.17;;;2.97;;
48859;SDS011;34679;51.436;-2.518;2023-07-20T01:06:59;3.35;;;2.70;;
48859;SDS011;34679;51.436;-2.518;2023-07-20T01:15:07;2.80;;;2.10;;
48859;SDS011;34679;51.436;-2.518;2023-07-20T01:17:34;4.13;;;2.65;;
48859;SDS011;34679;51.436;-2.518;2023-07-20T01:20:00;8.30;;;3.10;;
48859;SDS011;34679;51.436;-2.518;2023-07-20T01:25:07;4.57;;;3.13;;
48859;SDS011;34679;51.436;-2.518;2023-07-20T01:33:29;7.60;;;3.30;;
48859;SDS011;34679;51.436;-2.518;2023-07-20T01:35:58;12.20;;;4.60;;
48859;SDS011;34679;51.436;-2.518;2023-07-20T01:38:25;4.15;;;2.97;;
48859;SDS011;34679;51.436;-2.518;2023-07-20T01:40:51;8.27;;;3.53;;
48859;SDS011;34679;51.436;-2.518;2023-07-20T01:43:18;3.00;;;2.70;;
48859;SDS011;34679;51.436;-2.518;2023-07-20T01:45:44;3.10;;;2.80;;
48859;SDS011;34679;51.436;-2.518;2023-07-20T01:48:09;3.65;;;2.88;;
48859;SDS011;34679;51.436;-2.518;2023-07-20T01:50:35;4.78;;;2.97;;
48859;SDS011;34679;51.436;-2.518;2023-07-20T01:53:01;5.00;;;2.70;;
48859;SDS011;34679;51.436;-2.518;2023-07-20T01:55:27;6.65;;;3.50;;
48859;SDS011;34679;51.436;-2.518;2023-07-20T01:57:54;4.80;;;3.13;;
48859;SDS011;34679;51.436;-2.518;2023-07-20T02:00:20;3.90;;;3.00;;
48859;SDS011;34679;51.436;-2.518;2023-07-20T02:02:49;5.82;;;2.88;;
48859;SDS011;34679;51.436;-2.518;2023-07-20T02:05:15;3.78;;;3.13;;
48859;SDS011;34679;51.436;-2.518;2023-07-20T02:07:41;4.55;;;3.30;;
48859;SDS011;34679;51.436;-2.518;2023-07-20T02:10:07;6.38;;;2.83;;
48859;SDS011;34679;51.436;-2.518;2023-07-20T02:12:33;4.65;;;3.50;;
48859;SDS011;34679;51.436;-2.518;2023-07-20T02:14:59;4.35;;;3.00;;
48859;SDS011;34679;51.436;-2.518;2023-07-20T02:17:24;5.10;;;3.13;;
48859;SDS011;34679;51.436;-2.518;2023-07-20T02:19:52;5.90;;;3.35;;
48859;SDS011;34679;51.436;-2.518;2023-07-20T02:22:18;3.85;;;3.00;;
48859;SDS011;34679;51.436;-2.518;2023-07-20T02:24:44;6.13;;;3.10;;
48859;SDS011;34679;51.436;-2.518;2023-07-20T02:27:09;4.50;;;2.78;;
48859;SDS011;34679;51.436;-2.518;2023-07-20T02:29:35;3.80;;;3.28;;
48859;SDS011;34679;51.436;-2.518;2023-07-20T02:32:01;4.38;;;2.97;;
48859;SDS011;34679;51.436;-2.518;2023-07-20T02:34:27;5.53;;;2.83;;
48859;SDS011;34679;51.436;-2.518;2023-07-20T02:36:53;2.78;;;2.58;;
48859;SDS011;34679;51.436;-2.518;2023-07-20T02:39:21;7.75;;;3.30;;
48859;SDS011;34679;51.436;-2.518;2023-07-20T02:41:47;7.10;;;2.90;;
48859;SDS011;34679;51.436;-2.518;2023-07-20T02:44:13;3.38;;;3.08;;
48859;SDS011;34679;51.436;-2.518;2023-07-20T02:46:39;5.15;;;3.50;;
48859;SDS011;34679;51.436;-2.518;2023-07-20T02:49:06;3.53;;;3.15;;
48859;SDS011;34679;51.436;-2.518;2023-07-20T02:51:32;3.58;;;3.20;;
48859;SDS011;34679;51.436;-2.518;2023-07-20T02:53:57;4.07;;;3.03;;
48859;SDS011;34679;51.436;-2.518;2023-07-20T02:56:23;7.65;;;3.67;;
48859;SDS011;34679;51.436;-2.518;2023-07-20T02:58:49;7.07;;;3.75;;
48859;SDS011;34679;51.436;-2.518;2023-07-20T03:01:15;5.35;;;3.42;;
48859;SDS011;34679;51.436;-2.518;2023-07-20T03:03:42;4.13;;;3.60;;
48859;SDS011;34679;51.436;-2.518;2023-07-20T03:06:11;3.78;;;2.97;;
48859;SDS011;34679;51.436;-2.518;2023-07-20T03:08:38;4.57;;;3.05;;
48859;SDS011;34679;51.436;-2.518;2023-07-20T03:11:03;4.45;;;3.55;;
48859;SDS011;34679;51.436;-2.518;2023-07-20T03:13:29;3.78;;;3.45;;
48859;SDS011;34679;51.436;-2.518;2023-07-20T03:15:55;4.88;;;3.10;;
48859;SDS011;34679;51.436;-2.518;2023-07-20T03:18:20;6.25;;;4.15;;
48859;SDS011;34679;51.436;-2.518;2023-07-20T03:20:46;4.63;;;3.63;;
48859;SDS011;34679;51.436;-2.518;2023-07-20T03:23:13;5.93;;;3.42;;
48859;SDS011;34679;51.436;-2.518;2023-07-20T03:25:40;6.70;;;3.67;;
48859;SDS011;34679;51.436;-2.518;2023-07-20T03:28:06;4.65;;;3.53;;
48859;SDS011;34679;51.436;-2.518;2023-07-20T03:30:32;4.50;;;3.38;;
48859;SDS011;34679;51.436;-2.518;2023-07-20T03:32:58;4.00;;;3.60;;
48859;SDS011;34679;51.436;-2.518;2023-07-20T03:35:24;4.25;;;3.33;;
48859;SDS011;34679;51.436;-2.518;2023-07-20T03:37:49;4.47;;;3.30;;
48859;SDS011;34679;51.436;-2.518;2023-07-20T03:40:15;5.80;;;3.30;;
48859;SDS011;34679;51.436;-2.518;2023-07-20T03:42:41;3.45;;;3.13;;
48859;SDS011;34679;51.436;-2.518;2023-07-20T03:45:07;5.03;;;3.50;;
48859;SDS011;34679;51.436;-2.518;2023-07-20T03:47:33;4.57;;;2.95;;
48859;SDS011;34679;51.436;-2.518;2023-07-20T03:49:59;5.30;;;2.80;;
48859;SDS011;34679;51.436;-2.518;2023-07-20T03:52:24;7.65;;;4.97;;
48859;SDS011;34679;51.436;-2.518;2023-07-20T03:54:50;3.30;;;2.72;;
48859;SDS011;34679;51.436;-2.518;2023-07-20T03:57:18;7.03;;;3.05;;
48859;SDS011;34679;51.436;-2.518;2023-07-20T03:59:44;6.38;;;3.03;;
48859;SDS011;34679;51.436;-2.518;2023-07-20T04:02:11;3.85;;;3.05;;
48859;SDS011;34679;51.436;-2.518;2023-07-20T04:04:37;5.60;;;3.13;;
48859;SDS011;34679;51.436;-2.518;2023-07-20T04:07:02;3.58;;;3.28;;
48859;SDS011;34679;51.436;-2.518;2023-07-20T04:09:28;6.55;;;3.67;;
48859;SDS011;34679;51.436;-2.518;2023-07-20T04:11:54;4.38;;;3.33;;
48859;SDS011;34679;51.436;-2.518;2023-07-20T04:14:20;5.72;;;3.60;;
48859;SDS011;34679;51.436;-2.518;2023-07-20T04:16:46;6.95;;;3.70;;
48859;SDS011;34679;51.436;-2.518;2023-07-20T04:19:12;3.65;;;3.33;;
48859;SDS011;34679;51.436;-2.518;2023-07-20T04:21:41;3.88;;;3.58;;
48859;SDS011;34679;51.436;-2.518;2023-07-20T04:24:07;6.97;;;3.20;;
48859;SDS011;34679;51.436;-2.518;2023-07-20T04:26:32;5.40;;;3.40;;
48859;SDS011;34679;51.436;-2.518;2023-07-20T04:28:58;3.72;;;3.40;;
48859;SDS011;34679;51.436;-2.518;2023-07-20T04:31:26;3.78;;;3.47;;
48859;SDS011;34679;51.436;-2.518;2023-07-20T04:33:52;4.72;;;3.70;;
48859;SDS011;34679;51.436;-2.518;2023-07-20T04:36:18;8.05;;;3.40;;
48859;SDS011;34679;51.436;-2.518;2023-07-20T04:38:44;4.13;;;3.10;;
48859;SDS011;34679;51.436;-2.518;2023-07-20T04:41:11;6.50;;;2.80;;
48859;SDS011;34679;51.436;-2.518;2023-07-20T04:43:40;4.28;;;3.20;;
48859;SDS011;34679;51.436;-2.518;2023-07-20T04:46:08;3.13;;;2.78;;
48859;SDS011;34679;51.436;-2.518;2023-07-20T04:48:34;5.10;;;3.20;;
48859;SDS011;34679;51.436;-2.518;2023-07-20T04:51:00;3.10;;;2.70;;
48859;SDS011;34679;51.436;-2.518;2023-07-20T04:53:25;4.97;;;2.15;;
48859;SDS011;34679;51.436;-2.518;2023-07-20T04:55:51;5.78;;;2.25;;
48859;SDS011;34679;51.436;-2.518;2023-07-20T04:58:17;2.30;;;2.10;;
48859;SDS011;34679;51.436;-2.518;2023-07-20T05:00:44;3.33;;;2.13;;
48859;SDS011;34679;51.436;-2.518;2023-07-20T05:03:09;1.50;;;1.40;;
48859;SDS011;34679;51.436;-2.518;2023-07-20T05:05:35;2.60;;;1.80;;
48859;SDS011;34679;51.436;-2.518;2023-07-20T05:08:01;7.00;;;2.65;;
48859;SDS011;34679;51.436;-2.518;2023-07-20T05:10:28;3.78;;;1.42;;
48859;SDS011;34679;51.436;-2.518;2023-07-20T05:12:54;2.35;;;1.20;;
48859;SDS011;34679;51.436;-2.518;2023-07-20T05:15:20;2.75;;;1.70;;
48859;SDS011;34679;51.436;-2.518;2023-07-20T05:17:45;2.47;;;1.33;;
48859;SDS011;34679;51.436;-2.518;2023-07-20T05:20:13;2.42;;;1.40;;
48859;SDS011;34679;51.436;-2.518;2023-07-20T05:22:39;1.60;;;1.23;;
48859;SDS011;34679;51.436;-2.518;2023-07-20T05:25:08;2.55;;;1.27;;
48859;SDS011;34679;51.436;-2.518;2023-07-20T05:27:39;2.63;;;1.45;;
48859;SDS011;34679;51.436;-2.518;2023-07-20T05:30:06;6.53;;;1.77;;
48859;SDS011;34679;51.436;-2.518;2023-07-20T05:32:33;4.43;;;1.52;;
48859;SDS011;34679;51.436;-2.518;2023-07-20T05:34:58;4.93;;;1.45;;
48859;SDS011;34679;51.436;-2.518;2023-07-20T05:37:24;2.10;;;1.30;;
48859;SDS011;34679;51.436;-2.518;2023-07-20T05:39:50;2.60;;;1.40;;
48859;SDS011;34679;51.436;-2.518;2023-07-20T05:42:16;3.03;;;1.23;;
48859;SDS011;34679;51.436;-2.518;2023-07-20T05:44:42;4.75;;;1.30;;
48859;SDS011;34679;51.436;-2.518;2023-07-20T05:47:07;4.60;;;1.30;;
48859;SDS011;34679;51.436;-2.518;2023-07-20T05:49:36;3.30;;;1.35;;
48859;SDS011;34679;51.436;-2.518;2023-07-20T05:52:02;4.10;;;1.63;;
48859;SDS011;34679;51.436;-2.518;2023-07-20T05:54:28;1.10;;;1.00;;
48859;SDS011;34679;51.436;-2.518;2023-07-20T05:56:54;2.88;;;1.40;;
48859;SDS011;34679;51.436;-2.518;2023-07-20T05:59:20;3.42;;;1.20;;
48859;SDS011;34679;51.436;-2.518;2023-07-20T06:01:46;3.97;;;1.33;;
48859;SDS011;34679;51.436;-2.518;2023-07-20T06:04:14;2.25;;;1.48;;
48859;SDS011;34679;51.436;-2.518;2023-07-20T06:06:40;2.65;;;1.40;;
48859;SDS011;34679;51.436;-2.518;2023-07-20T06:09:06;3.33;;;1.80;;
48859;SDS011;34679;51.436;-2.518;2023-07-20T06:11:36;2.58;;;1.50;;
48859;SDS011;34679;51.436;-2.518;2023-07-20T06:14:03;3.05;;;1.48;;
48859;SDS011;34679;51.436;-2.518;2023-07-20T06:16:29;5.82;;;1.70;;
48859;SDS011;34679;51.436;-2.518;2023-07-20T06:18:55;3.00;;;1.50;;
48859;SDS011;34679;51.436;-2.518;2023-07-20T06:21:20;1.98;;;1.67;;
48859;SDS011;34679;51.436;-2.518;2023-07-20T06:23:46;3.85;;;1.58;;
48859;SDS011;34679;51.436;-2.518;2023-07-20T06:26:12;1.70;;;1.42;;
48859;SDS011;34679;51.436;-2.518;2023-07-20T06:28:37;3.95;;;1.60;;
48859;SDS011;34679;51.436;-2.518;2023-07-20T06:31:03;3.15;;;1.35;;
48859;SDS011;34679;51.436;-2.518;2023-07-20T06:33:29;3.00;;;1.38;;
48859;SDS011;34679;51.436;-2.518;2023-07-20T06:35:55;3.40;;;1.50;;
48859;SDS011;34679;51.436;-2.518;2023-07-20T06:38:22;2.05;;;1.52;;
48859;SDS011;34679;51.436;-2.518;2023-07-20T06:40:49;5.45;;;1.45;;
48859;SDS011;34679;51.436;-2.518;2023-07-20T06:43:15;5.57;;;2.10;;
48859;SDS011;34679;51.436;-2.518;2023-07-20T06:45:41;1.83;;;1.30;;
48859;SDS011;34679;51.436;-2.518;2023-07-20T06:48:06;4.30;;;1.65;;
48859;SDS011;34679;51.436;-2.518;2023-07-20T06:50:32;4.00;;;1.10;;
48859;SDS011;34679;51.436;-2.518;2023-07-20T06:52:58;3.92;;;1.45;;
48859;SDS011;34679;51.436;-2.518;2023-07-20T06:55:25;4.22;;;1.20;;
48859;SDS011;34679;51.436;-2.518;2023-07-20T06:57:51;2.90;;;1.30;;
48859;SDS011;34679;51.436;-2.518;2023-07-20T07:00:17;2.80;;;1.30;;
48859;SDS011;34679;51.436;-2.518;2023-07-20T07:02:43;4.10;;;1.45;;
48859;SDS011;34679;51.436;-2.518;2023-07-20T07:05:08;6.68;;;1.80;;
48859;SDS011;34679;51.436;-2.518;2023-07-20T07:07:34;2.17;;;1.10;;
48859;SDS011;34679;51.436;-2.518;2023-07-20T07:10:00;2.25;;;1.05;;
48859;SDS011;34679;51.436;-2.518;2023-07-20T07:12:26;3.83;;;1.30;;
48859;SDS011;34679;51.436;-2.518;2023-07-20T07:14:52;2.03;;;1.27;;
48859;SDS011;34679;51.436;-2.518;2023-07-20T07:17:18;4.18;;;1.67;;
48859;SDS011;34679;51.436;-2.518;2023-07-20T07:19:44;3.85;;;1.50;;
48859;SDS011;34679;51.436;-2.518;2023-07-20T07:22:10;2.13;;;1.27;;
48859;SDS011;34679;51.436;-2.518;2023-07-20T07:24:36;2.03;;;1.08;;
48859;SDS011;34679;51.436;-2.518;2023-07-20T07:27:02;1.75;;;1.10;;
48859;SDS011;34679;51.436;-2.518;2023-07-20T07:29:29;7.75;;;1.50;;
48859;SDS011;34679;51.436;-2.518;2023-07-20T07:31:54;3.50;;;1.42;;
48859;SDS011;34679;51.436;-2.518;2023-07-20T07:34:20;2.10;;;1.20;;
48859;SDS011;34679;51.436;-2.518;2023-07-20T07:36:46;2.40;;;1.60;;
48859;SDS011;34679;51.436;-2.518;2023-07-20T07:39:12;2.65;;;1.20;;
48859;SDS011;34679;51.436;-2.518;2023-07-20T07:41:38;2.47;;;1.25;;
48859;SDS011;34679;51.436;-2.518;2023-07-20T07:44:03;3.25;;;1.27;;
48859;SDS011;34679;51.436;-2.518;2023-07-20T07:46:29;2.53;;;1.65;;
48859;SDS011;34679;51.436;-2.518;2023-07-20T07:48:55;2.13;;;1.10;;
48859;SDS011;34679;51.436;-2.518;2023-07-20T07:51:21;1.30;;;1.02;;
48859;SDS011;34679;51.436;-2.518;2023-07-20T07:53:47;4.32;;;1.30;;
48859;SDS011;34679;51.436;-2.518;2023-07-20T07:56:14;2.03;;;1.00;;
48859;SDS011;34679;51.436;-2.518;2023-07-20T07:58:39;4.30;;;1.60;;
48859;SDS011;34679;51.436;-2.518;2023-07-20T08:01:05;2.67;;;1.05;;
48859;SDS011;34679;51.436;-2.518;2023-07-20T08:03:31;2.92;;;1.17;;
48859;SDS011;34679;51.436;-2.518;2023-07-20T08:05:57;2.78;;;1.00;;
48859;SDS011;34679;51.436;-2.518;2023-07-20T08:08:24;2.45;;;1.00;;
48859;SDS011;34679;51.436;-2.518;2023-07-20T08:10:53;1.83;;;1.10;;
48859;SDS011;34679;51.436;-2.518;2023-07-20T08:13:20;2.55;;;1.00;;
48859;SDS011;34679;51.436;-2.518;2023-07-20T08:15:48;2.67;;;1.05;;
48859;SDS011;34679;51.436;-2.518;2023-07-20T08:18:16;3.30;;;1.45;;
48859;SDS011;34679;51.436;-2.518;2023-07-20T08:20:45;1.52;;;1.38;;
48859;SDS011;34679;51.436;-2.518;2023-07-20T08:23:11;2.38;;;1.08;;
48859;SDS011;34679;51.436;-2.518;2023-07-20T08:25:37;2.65;;;1.15;;
48859;SDS011;34679;51.436;-2.518;2023-07-20T08:28:04;4.97;;;1.38;;
48859;SDS011;34679;51.436;-2.518;2023-07-20T08:30:39;1.70;;;1.40;;
48859;SDS011;34679;51.436;-2.518;2023-07-20T08:33:10;3.22;;;1.10;;
48859;SDS011;34679;51.436;-2.518;2023-07-20T08:35:37;2.17;;;1.30;;
48859;SDS011;34679;51.436;-2.518;2023-07-20T08:38:03;2.65;;;1.05;;
48859;SDS011;34679;51.436;-2.518;2023-07-20T08:40:30;3.70;;;1.10;;
48859;SDS011;34679;51.436;-2.518;2023-07-20T08:43:03;3.33;;;1.40;;
48859;SDS011;34679;51.436;-2.518;2023-07-20T08:45:29;3.28;;;1.27;;
48859;SDS011;34679;51.436;-2.518;2023-07-20T08:47:59;1.45;;;1.13;;
48859;SDS011;34679;51.436;-2.518;2023-07-20T08:50:26;3.00;;;1.00;;
48859;SDS011;34679;51.436;-2.518;2023-07-20T08:52:55;2.95;;;1.23;;
48859;SDS011;34679;51.436;-2.518;2023-07-20T08:55:23;1.13;;;1.00;;
48859;SDS011;34679;51.436;-2.518;2023-07-20T08:57:49;1.98;;;1.10;;
48859;SDS011;34679;51.436;-2.518;2023-07-20T09:00:18;2.17;;;1.00;;
48859;SDS011;34679;51.436;-2.518;2023-07-20T09:02:45;2.90;;;0.85;;
48859;SDS011;34679;51.436;-2.518;2023-07-20T09:05:12;1.27;;;0.90;;
48859;SDS011;34679;51.436;-2.518;2023-07-20T09:07:42;2.10;;;0.88;;
48859;SDS011;34679;51.436;-2.518;2023-07-20T09:10:08;2.05;;;0.60;;
48859;SDS011;34679;51.436;-2.518;2023-07-20T09:12:35;1.65;;;1.02;;
48859;SDS011;34679;51.436;-2.518;2023-07-20T09:15:05;2.70;;;0.80;;
48859;SDS011;34679;51.436;-2.518;2023-07-20T09:17:31;1.48;;;0.77;;
48859;SDS011;34679;51.436;-2.518;2023-07-20T09:19:57;3.25;;;1.15;;
48859;SDS011;34679;51.436;-2.518;2023-07-20T09:22:32;1.77;;;0.90;;
48859;SDS011;34679;51.436;-2.518;2023-07-20T09:24:58;1.05;;;0.70;;
48859;SDS011;34679;51.436;-2.518;2023-07-20T09:27:36;1.00;;;0.80;;
48859;SDS011;34679;51.436;-2.518;2023-07-20T09:30:06;1.83;;;1.17;;
48859;SDS011;34679;51.436;-2.518;2023-07-20T09:32:38;2.47;;;1.10;;
48859;SDS011;34679;51.436;-2.518;2023-07-20T09:35:19;3.67;;;1.67;;
48859;SDS011;34679;51.436;-2.518;2023-07-20T09:37:50;1.92;;;1.00;;
48859;SDS011;34679;51.436;-2.518;2023-07-20T09:40:19;3.05;;;1.33;;
48859;SDS011;34679;51.436;-2.518;2023-07-20T09:42:45;10.10;;;1.40;;
48859;SDS011;34679;51.436;-2.518;2023-07-20T09:45:12;5.93;;;1.30;;
48859;SDS011;34679;51.436;-2.518;2023-07-20T09:47:38;2.78;;;0.95;;
48859;SDS011;34679;51.436;-2.518;2023-07-20T09:50:04;7.53;;;1.60;;
48859;SDS011;34679;51.436;-2.518;2023-07-20T09:52:35;4.90;;;1.20;;
48859;SDS011;34679;51.436;-2.518;2023-07-20T09:55:04;1.75;;;1.20;;
48859;SDS011;34679;51.436;-2.518;2023-07-20T09:57:32;2.45;;;1.40;;
48859;SDS011;34679;51.436;-2.518;2023-07-20T09:59:59;1.70;;;1.35;;
48859;SDS011;34679;51.436;-2.518;2023-07-20T10:02:25;1.83;;;1.00;;
48859;SDS011;34679;51.436;-2.518;2023-07-20T10:04:58;2.40;;;1.15;;
48859;SDS011;34679;51.436;-2.518;2023-07-20T10:07:27;1.27;;;1.08;;
48859;SDS011;34679;51.436;-2.518;2023-07-20T10:09:55;1.80;;;1.30;;
48859;SDS011;34679;51.436;-2.518;2023-07-20T10:12:24;3.22;;;0.98;;
48859;SDS011;34679;51.436;-2.518;2023-07-20T10:15:53;3.90;;;1.40;;
48859;SDS011;34679;51.436;-2.518;2023-07-20T10:20:28;1.77;;;0.90;;
48859;SDS011;34679;51.436;-2.518;2023-07-20T10:22:57;1.02;;;0.93;;
48859;SDS011;34679;51.436;-2.518;2023-07-20T10:25:23;1.35;;;1.00;;
48859;SDS011;34679;51.436;-2.518;2023-07-20T10:27:49;2.55;;;1.15;;
48859;SDS011;34679;51.436;-2.518;2023-07-20T10:30:16;2.75;;;0.90;;
48859;SDS011;34679;51.436;-2.518;2023-07-20T10:32:43;1.55;;;0.98;;
48859;SDS011;34679;51.436;-2.518;2023-07-20T10:35:14;1.77;;;1.05;;
48859;SDS011;34679;51.436;-2.518;2023-07-20T10:40:29;3.17;;;1.10;;
48859;SDS011;34679;51.436;-2.518;2023-07-20T10:43:00;0.77;;;0.75;;
48859;SDS011;34679;51.436;-2.518;2023-07-20T10:45:36;1.17;;;0.80;;
48859;SDS011;34679;51.436;-2.518;2023-07-20T10:48:03;5.07;;;1.38;;
48859;SDS011;34679;51.436;-2.518;2023-07-20T10:50:30;2.80;;;1.50;;
48859;SDS011;34679;51.436;-2.518;2023-07-20T10:53:16;1.95;;;1.65;;
48859;SDS011;34679;51.436;-2.518;2023-07-20T10:55:43;2.95;;;1.48;;
48859;SDS011;34679;51.436;-2.518;2023-07-20T10:58:10;1.88;;;1.23;;
48859;SDS011;34679;51.436;-2.518;2023-07-20T11:00:37;3.58;;;1.10;;
48859;SDS011;34679;51.436;-2.518;2023-07-20T11:03:27;6.25;;;1.00;;
48859;SDS011;34679;51.436;-2.518;2023-07-20T11:05:58;1.83;;;1.20;;
48859;SDS011;34679;51.436;-2.518;2023-07-20T11:08:43;2.83;;;1.15;;
48859;SDS011;34679;51.436;-2.518;2023-07-20T11:11:21;1.30;;;1.05;;
48859;SDS011;34679;51.436;-2.518;2023-07-20T11:13:58;1.45;;;0.90;;
48859;SDS011;34679;51.436;-2.518;2023-07-20T11:19:00;2.63;;;1.40;;
48859;SDS011;34679;51.436;-2.518;2023-07-20T11:21:26;4.38;;;1.10;;
48859;SDS011;34679;51.436;-2.518;2023-07-20T11:23:53;1.17;;;1.00;;
48859;SDS011;34679;51.436;-2.518;2023-07-20T11:26:20;4.00;;;1.08;;
48859;SDS011;34679;51.436;-2.518;2023-07-20T11:28:49;2.30;;;1.10;;
48859;SDS011;34679;51.436;-2.518;2023-07-20T11:31:16;1.88;;;1.08;;
48859;SDS011;34679;51.436;-2.518;2023-07-20T11:33:43;2.85;;;1.10;;
48859;SDS011;34679;51.436;-2.518;2023-07-20T11:36:09;1.13;;;0.95;;
48859;SDS011;34679;51.436;-2.518;2023-07-20T11:38:34;1.52;;;1.10;;
48859;SDS011;34679;51.436;-2.518;2023-07-20T11:41:02;3.28;;;1.20;;
48859;SDS011;34679;51.436;-2.518;2023-07-20T11:43:28;4.78;;;1.17;;
48859;SDS011;34679;51.436;-2.518;2023-07-20T11:45:55;1.45;;;1.30;;
48859;SDS011;34679;51.436;-2.518;2023-07-20T11:48:21;3.90;;;1.10;;
48859;SDS011;34679;51.436;-2.518;2023-07-20T11:50:47;1.85;;;1.13;;
48859;SDS011;34679;51.436;-2.518;2023-07-20T11:53:13;4.75;;;2.08;;
48859;SDS011;34679;51.436;-2.518;2023-07-20T11:55:40;2.00;;;1.02;;
48859;SDS011;34679;51.436;-2.518;2023-07-20T11:58:06;1.73;;;1.08;;
48859;SDS011;34679;51.436;-2.518;2023-07-20T12:00:34;4.22;;;1.10;;
48859;SDS011;34679;51.436;-2.518;2023-07-20T12:03:04;1.58;;;1.02;;
48859;SDS011;34679;51.436;-2.518;2023-07-20T12:05:35;3.38;;;1.10;;
48859;SDS011;34679;51.436;-2.518;2023-07-20T12:08:01;1.83;;;1.27;;
48859;SDS011;34679;51.436;-2.518;2023-07-20T12:10:28;1.23;;;1.00;;
48859;SDS011;34679;51.436;-2.518;2023-07-20T12:12:54;1.63;;;1.15;;
48859;SDS011;34679;51.436;-2.518;2023-07-20T12:15:26;1.48;;;1.05;;
48859;SDS011;34679;51.436;-2.518;2023-07-20T12:17:55;3.03;;;0.98;;
48859;SDS011;34679;51.436;-2.518;2023-07-20T12:20:28;1.70;;;0.90;;
48859;SDS011;34679;51.436;-2.518;2023-07-20T12:23:12;4.20;;;1.20;;
48859;SDS011;34679;51.436;-2.518;2023-07-20T12:28:17;2.38;;;1.10;;
48859;SDS011;34679;51.436;-2.518;2023-07-20T12:30:45;1.00;;;0.90;;
48859;SDS011;34679;51.436;-2.518;2023-07-20T12:33:12;2.00;;;1.20;;
48859;SDS011;34679;51.436;-2.518;2023-07-20T12:35:41;1.52;;;1.23;;
48859;SDS011;34679;51.436;-2.518;2023-07-20T12:38:08;1.55;;;0.90;;
48859;SDS011;34679;51.436;-2.518;2023-07-20T12:40:34;1.33;;;0.93;;
48859;SDS011;34679;51.436;-2.518;2023-07-20T12:43:01;6.53;;;1.27;;
48859;SDS011;34679;51.436;-2.518;2023-07-20T12:45:26;1.42;;;1.30;;
48859;SDS011;34679;51.436;-2.518;2023-07-20T12:47:52;5.70;;;1.00;;
48859;SDS011;34679;51.436;-2.518;2023-07-20T12:50:18;1.58;;;1.25;;
48859;SDS011;34679;51.436;-2.518;2023-07-20T12:52:44;1.80;;;0.98;;
48859;SDS011;34679;51.436;-2.518;2023-07-20T12:55:09;2.85;;;1.25;;
48859;SDS011;34679;51.436;-2.518;2023-07-20T12:57:35;1.00;;;0.90;;
48859;SDS011;34679;51.436;-2.518;2023-07-20T13:00:02;0.95;;;0.90;;
48859;SDS011;34679;51.436;-2.518;2023-07-20T13:02:32;3.13;;;1.17;;
48859;SDS011;34679;51.436;-2.518;2023-07-20T13:04:58;1.35;;;1.00;;
48859;SDS011;34679;51.436;-2.518;2023-07-20T13:07:31;2.80;;;1.10;;
48859;SDS011;34679;51.436;-2.518;2023-07-20T13:10:04;1.55;;;1.20;;
48859;SDS011;34679;51.436;-2.518;2023-07-20T13:12:32;2.05;;;1.13;;
48859;SDS011;34679;51.436;-2.518;2023-07-20T13:14:58;4.28;;;1.40;;
48859;SDS011;34679;51.436;-2.518;2023-07-20T13:17:26;2.20;;;1.38;;
48859;SDS011;34679;51.436;-2.518;2023-07-20T13:19:52;1.77;;;1.10;;
48859;SDS011;34679;51.436;-2.518;2023-07-20T13:22:18;1.48;;;1.20;;
48859;SDS011;34679;51.436;-2.518;2023-07-20T13:24:44;1.60;;;1.23;;
48859;SDS011;34679;51.436;-2.518;2023-07-20T13:27:14;5.78;;;1.58;;
48859;SDS011;34679;51.436;-2.518;2023-07-20T13:29:40;1.83;;;1.55;;
48859;SDS011;34679;51.436;-2.518;2023-07-20T13:32:07;1.80;;;1.40;;
48859;SDS011;34679;51.436;-2.518;2023-07-20T13:34:33;2.50;;;1.60;;
48859;SDS011;34679;51.436;-2.518;2023-07-20T13:36:59;2.45;;;1.35;;
48859;SDS011;34679;51.436;-2.518;2023-07-20T13:39:25;1.63;;;1.50;;
48859;SDS011;34679;51.436;-2.518;2023-07-20T13:41:53;1.92;;;1.80;;
48859;SDS011;34679;51.436;-2.518;2023-07-20T13:44:21;3.85;;;1.70;;
48859;SDS011;34679;51.436;-2.518;2023-07-20T13:46:47;2.05;;;1.70;;
48859;SDS011;34679;51.436;-2.518;2023-07-20T13:49:14;1.77;;;1.45;;
48859;SDS011;34679;51.436;-2.518;2023-07-20T13:51:40;4.35;;;1.60;;
48859;SDS011;34679;51.436;-2.518;2023-07-20T13:54:07;3.78;;;1.52;;
48859;SDS011;34679;51.436;-2.518;2023-07-20T13:56:33;2.88;;;1.70;;
48859;SDS011;34679;51.436;-2.518;2023-07-20T13:58:59;2.95;;;2.33;;
48859;SDS011;34679;51.436;-2.518;2023-07-20T14:01:24;4.10;;;1.90;;
48859;SDS011;34679;51.436;-2.518;2023-07-20T14:03:50;1.75;;;1.50;;
48859;SDS011;34679;51.436;-2.518;2023-07-20T14:06:16;1.80;;;1.70;;
48859;SDS011;34679;51.436;-2.518;2023-07-20T14:08:42;3.13;;;1.70;;
48859;SDS011;34679;51.436;-2.518;2023-07-20T14:11:11;2.47;;;2.17;;
48859;SDS011;34679;51.436;-2.518;2023-07-20T14:13:37;2.95;;;1.60;;
48859;SDS011;34679;51.436;-2.518;2023-07-20T14:16:03;3.05;;;1.50;;
48859;SDS011;34679;51.436;-2.518;2023-07-20T14:18:29;2.28;;;1.80;;
48859;SDS011;34679;51.436;-2.518;2023-07-20T14:20:55;2.28;;;1.50;;
48859;SDS011;34679;51.436;-2.518;2023-07-20T14:23:21;2.53;;;1.40;;
48859;SDS011;34679;51.436;-2.518;2023-07-20T14:25:47;3.97;;;1.67;;
48859;SDS011;34679;51.436;-2.518;2023-07-20T14:28:13;2.92;;;1.77;;
48859;SDS011;34679;51.436;-2.518;2023-07-20T14:30:39;2.67;;;1.52;;
48859;SDS011;34679;51.436;-2.518;2023-07-20T14:33:05;2.72;;;1.65;;
48859;SDS011;34679;51.436;-2.518;2023-07-20T14:35:30;5.53;;;1.80;;
48859;SDS011;34679;51.436;-2.518;2023-07-20T14:37:56;4.18;;;1.80;;
48859;SDS011;34679;51.436;-2.518;2023-07-20T14:40:22;2.97;;;1.73;;
48859;SDS011;34679;51.436;-2.518;2023-07-20T14:42:47;5.05;;;1.95;;
48859;SDS011;34679;51.436;-2.518;2023-07-20T14:45:13;2.40;;;1.90;;
48859;SDS011;34679;51.436;-2.518;2023-07-20T14:47:39;2.63;;;1.90;;
48859;SDS011;34679;51.436;-2.518;2023-07-20T14:50:05;3.70;;;2.17;;
48859;SDS011;34679;51.436;-2.518;2023-07-20T14:52:31;1.73;;;1.52;;
48859;SDS011;34679;51.436;-2.518;2023-07-20T14:54:57;4.75;;;2.20;;
48859;SDS011;34679;51.436;-2.518;2023-07-20T14:57:23;4.55;;;1.80;;